createdAt,value
2023-01-11T00:00:53.274Z,8.13
2023-01-11T00:01:53.371Z,8.18
2023-01-11T00:02:53.213Z,8.19
2023-01-11T00:03:53.337Z,8.23
2023-01-11T00:04:53.234Z,8.24
2023-01-11T00:05:53.164Z,8.26
2023-01-11T00:06:53.183Z,8.23
2023-01-11T00:07:53.204Z,8.23
2023-01-11T00:08:53.115Z,8.24
2023-01-11T00:09:53.203Z,8.27
2023-01-11T00:10:53.091Z,8.31
2023-01-11T00:11:53.104Z,8.34
2023-01-11T00:12:53.081Z,8.37
2023-01-11T00:13:53.103Z,8.44
2023-01-11T00:14:53.045Z,8.44
2023-01-11T00:15:53.178Z,8.42
2023-01-11T00:16:53.035Z,8.42
2023-01-11T00:17:53.097Z,8.46
2023-01-11T00:18:53.057Z,8.53
2023-01-11T00:19:53.019Z,8.56
2023-01-11T00:20:53.048Z,8.56
2023-01-11T00:21:53.009Z,8.55
2023-01-11T00:22:53.012Z,8.52
2023-01-11T00:23:52.976Z,8.51
2023-01-11T00:24:52.972Z,8.56
2023-01-11T00:25:52.979Z,8.56
2023-01-11T00:26:52.926Z,8.55
2023-01-11T00:27:53.023Z,8.53
2023-01-11T00:28:53.766Z,8.49
2023-01-11T00:29:52.939Z,8.49
2023-01-11T00:30:53.014Z,8.46
2023-01-11T00:31:52.899Z,8.42
2023-01-11T00:32:52.873Z,8.41
2023-01-11T00:33:52.893Z,8.38
2023-01-11T00:34:53.894Z,8.36
2023-01-11T00:35:52.870Z,8.33
2023-01-11T00:36:53.003Z,8.30
2023-01-11T00:37:52.843Z,8.30
2023-01-11T00:38:52.797Z,8.28
2023-01-11T00:39:52.856Z,8.28
2023-01-11T00:40:52.785Z,8.33
2023-01-11T00:41:52.801Z,8.30
2023-01-11T00:42:52.778Z,8.31
2023-01-11T00:43:52.794Z,8.33
2023-01-11T00:44:52.746Z,8.31
2023-01-11T00:45:52.821Z,8.36
2023-01-11T00:46:52.727Z,8.37
2023-01-11T00:47:52.780Z,8.38
2023-01-11T00:48:52.732Z,8.38
2023-01-11T00:49:52.726Z,8.42
2023-01-11T00:50:52.695Z,8.46
2023-01-11T00:51:52.795Z,8.46
2023-01-11T00:52:52.674Z,8.48
2023-01-11T00:53:52.664Z,8.44
2023-01-11T00:54:52.677Z,8.44
2023-01-11T00:55:52.677Z,8.51
2023-01-11T00:56:52.653Z,8.53
2023-01-11T00:57:52.751Z,8.53
2023-01-11T00:58:52.590Z,8.49
2023-01-11T00:59:52.656Z,8.46
2023-01-11T01:00:52.614Z,8.51
2023-01-11T01:01:52.587Z,8.53
2023-01-11T01:02:52.647Z,8.61
2023-01-11T01:03:52.560Z,8.64
2023-01-11T01:04:52.526Z,8.69
2023-01-11T01:05:52.559Z,8.69
2023-01-11T01:06:52.631Z,8.69
2023-01-11T01:07:52.522Z,8.69
2023-01-11T01:08:52.562Z,8.71
2023-01-11T01:09:52.512Z,8.71
2023-01-11T01:10:52.480Z,8.76
2023-01-11T01:11:52.481Z,8.76
2023-01-11T01:12:52.499Z,8.73
2023-01-11T01:13:52.464Z,8.70
2023-01-11T01:14:52.449Z,8.64
2023-01-11T01:15:52.538Z,8.64
2023-01-11T01:16:52.440Z,8.61
2023-01-11T01:17:52.453Z,8.64
2023-01-11T01:18:52.427Z,8.66
2023-01-11T01:19:52.393Z,8.66
2023-01-11T01:20:52.387Z,8.66
2023-01-11T01:21:52.386Z,8.69
2023-01-11T01:22:52.344Z,8.71
2023-01-11T01:23:52.358Z,8.79
2023-01-11T01:24:52.338Z,8.84
2023-01-11T01:25:52.372Z,8.87
2023-01-11T01:26:52.298Z,8.87
2023-01-11T01:27:52.350Z,8.87
2023-01-11T01:28:52.289Z,8.87
2023-01-11T01:29:52.813Z,8.89
2023-01-11T01:30:52.343Z,8.88
2023-01-11T01:31:52.288Z,9.00
2023-01-11T01:32:52.234Z,9.00
2023-01-11T01:33:52.284Z,9.00
2023-01-11T01:34:52.245Z,8.94
2023-01-11T01:35:52.231Z,8.91
2023-01-11T01:36:52.233Z,8.88
2023-01-11T01:37:52.225Z,8.87
2023-01-11T01:38:52.215Z,8.92
2023-01-11T01:39:52.187Z,8.94
2023-01-11T01:40:52.226Z,8.92
2023-01-11T01:41:52.169Z,9.00
2023-01-11T01:42:52.177Z,9.00
2023-01-11T01:43:52.256Z,8.97
2023-01-11T01:44:52.129Z,8.99
2023-01-11T01:45:52.175Z,8.99
2023-01-11T01:46:52.164Z,9.00
2023-01-11T01:47:52.120Z,8.97
2023-01-11T01:48:52.139Z,9.00
2023-01-11T01:49:52.121Z,9.02
2023-01-11T01:50:52.159Z,9.06
2023-01-11T01:51:52.067Z,9.08
2023-01-11T01:52:52.049Z,9.04
2023-01-11T01:53:52.123Z,9.04
2023-01-11T01:54:52.075Z,9.03
2023-01-11T01:55:52.046Z,9.13
2023-01-11T01:56:51.983Z,9.11
2023-01-11T01:57:52.052Z,9.14
2023-01-11T01:58:51.980Z,9.10
2023-01-11T01:59:52.132Z,9.04
2023-01-11T02:00:52.037Z,9.02
2023-01-11T02:01:51.988Z,9.06
2023-01-11T02:02:52.111Z,9.03
2023-01-11T02:03:51.974Z,9.02
2023-01-11T02:04:51.929Z,9.00
2023-01-11T02:05:51.912Z,9.00
2023-01-11T02:06:51.931Z,9.00
2023-01-11T02:07:51.920Z,8.95
2023-01-11T02:08:51.886Z,8.99
2023-01-11T02:09:51.961Z,9.03
2023-01-11T02:10:51.927Z,9.06
2023-01-11T02:11:51.848Z,9.08
2023-01-11T02:12:51.846Z,9.04
2023-01-11T02:13:51.883Z,9.03
2023-01-11T02:14:51.804Z,8.99
2023-01-11T02:15:51.821Z,9.00
2023-01-11T02:16:51.785Z,9.00
2023-01-11T02:17:51.783Z,8.94
2023-01-11T02:18:51.805Z,8.95
2023-01-11T02:19:51.770Z,8.94
2023-01-11T02:20:51.738Z,8.92
2023-01-11T02:21:51.744Z,8.91
2023-01-11T02:22:51.733Z,8.94
2023-01-11T02:23:51.736Z,8.92
2023-01-11T02:24:51.758Z,8.94
2023-01-11T02:25:51.703Z,8.99
2023-01-11T02:26:51.684Z,8.99
2023-01-11T02:27:51.737Z,9.00
2023-01-11T02:28:51.682Z,8.97
2023-01-11T02:29:51.710Z,8.95
2023-01-11T02:30:51.684Z,8.92
2023-01-11T02:31:51.714Z,8.97
2023-01-11T02:32:51.612Z,8.97
2023-01-11T02:33:51.619Z,9.03
2023-01-11T02:34:51.590Z,9.02
2023-01-11T02:35:51.600Z,9.02
2023-01-11T02:36:51.597Z,9.03
2023-01-11T02:37:51.591Z,9.00
2023-01-11T02:38:51.589Z,8.99
2023-01-11T02:39:51.585Z,9.02
2023-01-11T02:40:51.528Z,9.02
2023-01-11T02:41:51.535Z,9.02
2023-01-11T02:42:51.529Z,9.00
2023-01-11T02:43:51.566Z,9.03
2023-01-11T02:44:51.481Z,9.11
2023-01-11T02:45:51.526Z,9.14
2023-01-11T02:46:51.513Z,9.21
2023-01-11T02:47:51.533Z,9.21
2023-01-11T02:48:51.535Z,9.22
2023-01-11T02:49:51.463Z,9.23
2023-01-11T02:50:51.491Z,9.26
2023-01-11T02:51:51.442Z,9.25
2023-01-11T02:52:51.400Z,9.26
2023-01-11T02:53:51.415Z,9.22
2023-01-11T02:54:51.428Z,9.23
2023-01-11T02:55:51.443Z,9.25
2023-01-11T02:56:51.359Z,9.25
2023-01-11T02:57:51.380Z,9.19
2023-01-11T02:58:51.470Z,9.26
2023-01-11T02:59:51.393Z,9.29
2023-01-11T03:00:51.352Z,9.23
2023-01-11T03:01:51.372Z,9.29
2023-01-11T03:02:51.493Z,9.29
2023-01-11T03:03:51.346Z,9.26
2023-01-11T03:04:51.277Z,9.21
2023-01-11T03:05:51.286Z,9.21
2023-01-11T03:06:51.491Z,9.21
2023-01-11T03:07:51.277Z,9.28
2023-01-11T03:08:51.264Z,9.29
2023-01-11T03:09:51.331Z,9.28
2023-01-11T03:10:51.212Z,9.26
2023-01-11T03:11:51.268Z,9.32
2023-01-11T03:12:51.208Z,9.29
2023-01-11T03:13:51.202Z,9.28
2023-01-11T03:14:51.233Z,9.29
2023-01-11T03:15:51.322Z,9.29
2023-01-11T03:16:51.193Z,9.32
2023-01-11T03:17:51.251Z,9.32
2023-01-11T03:18:51.515Z,9.41
2023-01-11T03:19:51.117Z,9.40
2023-01-11T03:20:51.133Z,9.44
2023-01-11T03:21:51.179Z,9.41
2023-01-11T03:22:51.113Z,9.43
2023-01-11T03:23:51.078Z,9.46
2023-01-11T03:24:51.126Z,9.47
2023-01-11T03:25:51.828Z,9.47
2023-01-11T03:26:51.159Z,9.46
2023-01-11T03:27:51.042Z,9.46
2023-01-11T03:28:51.073Z,9.47
2023-01-11T03:29:51.071Z,9.46
2023-01-11T03:30:51.054Z,9.43
2023-01-11T03:31:51.084Z,9.44
2023-01-11T03:32:51.011Z,9.44
2023-01-11T03:33:51.118Z,9.43
2023-01-11T03:34:51.015Z,9.40
2023-01-11T03:35:50.960Z,9.39
2023-01-11T03:36:51.011Z,9.41
2023-01-11T03:37:50.965Z,9.50
2023-01-11T03:38:50.953Z,9.50
2023-01-11T03:39:50.937Z,9.48
2023-01-11T03:40:50.984Z,9.47
2023-01-11T03:41:50.984Z,9.47
2023-01-11T03:42:50.948Z,9.51
2023-01-11T03:43:50.936Z,9.58
2023-01-11T03:44:50.887Z,9.61
2023-01-11T03:45:50.942Z,9.66
2023-01-11T03:46:51.029Z,9.64
2023-01-11T03:47:50.826Z,9.62
2023-01-11T03:48:51.427Z,9.61
2023-01-11T03:49:50.811Z,9.65
2023-01-11T03:50:50.905Z,9.61
2023-01-11T03:51:50.937Z,9.65
2023-01-11T03:52:50.806Z,9.69
2023-01-11T03:53:50.784Z,9.76
2023-01-11T03:54:50.814Z,9.74
2023-01-11T03:55:50.743Z,9.68
2023-01-11T03:56:50.762Z,9.72
2023-01-11T03:57:50.719Z,9.72
2023-01-11T03:58:50.736Z,9.74
2023-01-11T03:59:50.704Z,9.74
2023-01-11T04:00:50.790Z,9.69
2023-01-11T04:01:50.687Z,9.73
2023-01-11T04:02:50.744Z,9.80
2023-01-11T04:03:50.754Z,9.84
2023-01-11T04:04:50.766Z,9.80
2023-01-11T04:05:50.638Z,9.80
2023-01-11T04:06:50.838Z,9.79
2023-01-11T04:07:50.714Z,9.83
2023-01-11T04:08:50.630Z,9.86
2023-01-11T04:09:50.598Z,9.86
2023-01-11T04:10:50.612Z,9.83
2023-01-11T04:11:50.636Z,9.84
2023-01-11T04:12:50.622Z,9.86
2023-01-11T04:13:50.556Z,9.89
2023-01-11T04:14:50.649Z,9.86
2023-01-11T04:15:50.546Z,9.87
2023-01-11T04:16:50.630Z,9.94
2023-01-11T04:17:50.549Z,9.91
2023-01-11T04:18:50.569Z,9.91
2023-01-11T04:19:50.499Z,9.92
2023-01-11T04:20:50.503Z,9.91
2023-01-11T04:21:50.477Z,9.89
2023-01-11T04:22:50.485Z,9.89
2023-01-11T04:23:50.457Z,9.89
2023-01-11T04:24:50.924Z,9.92
2023-01-11T04:25:50.519Z,9.89
2023-01-11T04:26:50.480Z,9.86
2023-01-11T04:27:50.431Z,9.86
2023-01-11T04:28:52.219Z,9.91
2023-01-11T04:29:50.499Z,9.92
2023-01-11T04:30:50.443Z,9.92
2023-01-11T04:31:50.477Z,9.94
2023-01-11T04:32:50.567Z,9.94
2023-01-11T04:33:50.489Z,9.94
2023-01-11T04:34:50.523Z,9.87
2023-01-11T04:35:50.407Z,9.83
2023-01-11T04:36:50.434Z,9.76
2023-01-11T04:37:50.633Z,9.69
2023-01-11T04:38:50.461Z,9.65
2023-01-11T04:39:50.315Z,9.58
2023-01-11T04:40:50.362Z,9.48
2023-01-11T04:41:50.272Z,9.50
2023-01-11T04:42:50.395Z,9.50
2023-01-11T04:43:50.379Z,9.48
2023-01-11T04:44:50.314Z,9.54
2023-01-11T04:45:50.232Z,9.51
2023-01-11T04:46:50.365Z,9.48
2023-01-11T04:47:50.441Z,9.44
2023-01-11T04:48:50.252Z,9.41
2023-01-11T04:49:50.367Z,9.39
2023-01-11T04:50:50.342Z,9.43
2023-01-11T04:51:50.169Z,9.48
2023-01-11T04:52:50.175Z,9.48
2023-01-11T04:53:50.263Z,9.51
2023-01-11T04:54:51.009Z,9.46
2023-01-11T04:55:50.281Z,9.44
2023-01-11T04:56:50.158Z,9.46
2023-01-11T04:57:50.132Z,9.50
2023-01-11T04:58:50.154Z,9.39
2023-01-11T04:59:50.085Z,9.32
2023-01-11T05:00:50.209Z,9.36
2023-01-11T05:01:50.225Z,9.41
2023-01-11T05:02:50.077Z,9.40
2023-01-11T05:03:50.403Z,9.41
2023-01-11T05:04:50.106Z,9.40
2023-01-11T05:05:50.839Z,9.36
2023-01-11T05:06:51.181Z,9.32
2023-01-11T05:07:50.019Z,9.36
2023-01-11T05:08:50.909Z,9.39
2023-01-11T05:09:51.768Z,9.46
2023-01-11T05:10:50.849Z,9.48
2023-01-11T05:11:50.874Z,9.48
2023-01-11T05:12:50.250Z,9.46
2023-01-11T05:13:49.992Z,9.47
2023-01-11T05:14:50.005Z,9.44
2023-01-11T05:15:49.963Z,9.44
2023-01-11T05:16:50.146Z,9.48
2023-01-11T05:17:50.761Z,9.46
2023-01-11T05:18:50.434Z,9.43
2023-01-11T05:19:49.965Z,9.41
2023-01-11T05:20:49.977Z,9.43
2023-01-11T05:21:50.176Z,9.48
2023-01-11T05:22:49.970Z,9.43
2023-01-11T05:23:49.832Z,9.36
2023-01-11T05:24:49.944Z,9.39
2023-01-11T05:25:49.912Z,9.41
2023-01-11T05:26:49.822Z,9.51
2023-01-11T05:27:49.875Z,9.56
2023-01-11T05:28:49.919Z,9.51
2023-01-11T05:29:49.940Z,9.54
2023-01-11T05:30:49.942Z,9.47
2023-01-11T05:31:50.163Z,9.54
2023-01-11T05:32:50.457Z,9.59
2023-01-11T05:33:50.768Z,9.59
2023-01-11T05:34:49.954Z,9.51
2023-01-11T05:35:54.447Z,9.51
2023-01-11T05:36:50.041Z,9.55
2023-01-11T05:37:50.605Z,9.58
2023-01-11T05:38:53.324Z,9.58
2023-01-11T05:39:50.287Z,9.61
2023-01-11T05:40:53.307Z,9.65
2023-01-11T05:41:50.374Z,9.62
2023-01-11T05:42:52.288Z,9.62
2023-01-11T05:43:49.817Z,9.64
2023-01-11T05:44:50.460Z,9.64
2023-01-11T05:45:49.670Z,9.62
2023-01-11T05:46:49.921Z,9.56
2023-01-11T05:47:53.301Z,9.54
2023-01-11T05:48:50.468Z,9.51
2023-01-11T05:49:49.852Z,9.59
2023-01-11T05:50:52.803Z,9.58
2023-01-11T05:51:50.451Z,9.54
2023-01-11T05:52:50.930Z,9.51
2023-01-11T05:53:52.338Z,9.56
2023-01-11T05:54:49.553Z,9.56
2023-01-11T05:55:50.628Z,9.59
2023-01-11T05:56:50.848Z,9.56
2023-01-11T05:57:53.309Z,9.54
2023-01-11T05:58:49.798Z,9.51
2023-01-11T05:59:53.316Z,9.46
2023-01-11T06:00:50.494Z,9.50
2023-01-11T06:01:52.319Z,9.64
2023-01-11T06:02:53.019Z,9.73
2023-01-11T06:03:50.456Z,9.65
2023-01-11T06:04:49.427Z,9.62
2023-01-11T06:05:55.138Z,9.64
2023-01-11T06:06:54.239Z,9.65
2023-01-11T06:07:52.954Z,9.61
2023-01-11T06:08:53.343Z,9.55
2023-01-11T06:09:53.325Z,9.48
2023-01-11T06:10:49.362Z,9.44
2023-01-11T06:11:50.407Z,9.43
2023-01-11T06:12:51.354Z,9.46
2023-01-11T06:13:51.763Z,9.47
2023-01-11T06:14:51.887Z,9.50
2023-01-11T06:15:53.330Z,9.50
2023-01-11T06:16:49.674Z,9.51
2023-01-11T06:17:52.302Z,9.47
2023-01-11T06:18:50.036Z,9.47
2023-01-11T06:19:51.420Z,9.44
2023-01-11T06:20:49.681Z,9.48
2023-01-11T06:21:51.402Z,9.51
2023-01-11T06:22:50.301Z,9.54
2023-01-11T06:23:51.134Z,9.48
2023-01-11T06:24:49.986Z,9.54
2023-01-11T06:25:49.973Z,9.55
2023-01-11T06:26:52.403Z,9.61
2023-01-11T06:27:49.625Z,9.62
2023-01-11T06:28:52.384Z,9.64
2023-01-11T06:29:52.386Z,9.74
2023-01-11T06:30:53.011Z,9.65
2023-01-11T06:31:49.997Z,9.61
2023-01-11T06:32:54.471Z,9.58
2023-01-11T06:33:50.773Z,9.55
2023-01-11T06:34:52.333Z,9.51
2023-01-11T06:35:50.300Z,9.54
2023-01-11T06:36:53.676Z,9.64
2023-01-11T06:37:50.001Z,9.64
2023-01-11T06:38:53.305Z,9.64
2023-01-11T06:39:49.774Z,9.62
2023-01-11T06:40:53.818Z,9.69
2023-01-11T06:41:49.324Z,9.74
2023-01-11T06:42:50.002Z,9.73
2023-01-11T06:43:52.386Z,9.69
2023-01-11T06:44:50.881Z,9.64
2023-01-11T06:45:50.126Z,9.68
2023-01-11T06:46:49.497Z,9.72
2023-01-11T06:47:50.472Z,9.76
2023-01-11T06:48:48.987Z,9.74
2023-01-11T06:49:53.351Z,9.74
2023-01-11T06:50:49.351Z,9.73
2023-01-11T06:51:50.005Z,9.69
2023-01-11T06:52:49.952Z,9.69
2023-01-11T06:53:49.895Z,9.72
2023-01-11T06:54:49.209Z,9.76
2023-01-11T06:55:48.952Z,9.76
2023-01-11T06:56:49.035Z,9.72
2023-01-11T06:57:49.062Z,9.64
2023-01-11T06:58:49.024Z,9.64
2023-01-11T06:59:49.062Z,9.61
2023-01-11T07:00:49.046Z,9.61
2023-01-11T07:01:49.123Z,9.58
2023-01-11T07:02:48.817Z,9.59
2023-01-11T07:03:48.848Z,9.64
2023-01-11T07:04:48.868Z,9.61
2023-01-11T07:05:48.910Z,9.58
2023-01-11T07:06:48.983Z,9.62
2023-01-11T07:07:48.851Z,9.65
2023-01-11T07:08:48.867Z,9.72
2023-01-11T07:09:48.967Z,9.68
2023-01-11T07:10:48.818Z,9.66
2023-01-11T07:11:48.909Z,9.65
2023-01-11T07:12:48.886Z,9.66
2023-01-11T07:13:49.337Z,9.69
2023-01-11T07:14:49.434Z,9.68
2023-01-11T07:15:48.830Z,9.73
2023-01-11T07:16:49.661Z,9.74
2023-01-11T07:17:48.744Z,9.74
2023-01-11T07:18:49.624Z,9.73
2023-01-11T07:19:49.424Z,9.74
2023-01-11T07:20:48.777Z,9.76
2023-01-11T07:21:48.688Z,9.76
2023-01-11T07:22:48.711Z,9.77
2023-01-11T07:23:48.683Z,9.74
2023-01-11T07:24:49.513Z,9.82
2023-01-11T07:25:48.973Z,9.84
2023-01-11T07:26:48.893Z,9.80
2023-01-11T07:27:50.478Z,9.82
2023-01-11T07:28:49.106Z,9.80
2023-01-11T07:29:51.286Z,9.76
2023-01-11T07:30:58.187Z,9.76
2023-01-11T07:31:49.861Z,9.74
2023-01-11T07:32:50.041Z,9.74
2023-01-11T07:33:48.856Z,9.73
2023-01-11T07:34:48.883Z,9.69
2023-01-11T07:35:48.515Z,9.72
2023-01-11T07:36:48.467Z,9.68
2023-01-11T07:37:52.029Z,9.69
2023-01-11T07:38:48.428Z,9.69
2023-01-11T07:39:51.969Z,9.66
2023-01-11T07:40:48.765Z,9.64
2023-01-11T07:41:48.981Z,9.65
2023-01-11T07:42:48.779Z,9.62
2023-01-11T07:43:48.429Z,9.62
2023-01-11T07:44:48.482Z,9.64
2023-01-11T07:45:48.840Z,9.64
2023-01-11T07:46:48.494Z,9.73
2023-01-11T07:47:49.173Z,9.76
2023-01-11T07:48:49.707Z,9.80
2023-01-11T07:49:49.122Z,9.79
2023-01-11T07:50:48.506Z,9.79
2023-01-11T07:51:48.409Z,9.77
2023-01-11T07:52:48.401Z,9.73
2023-01-11T07:53:48.456Z,9.73
2023-01-11T07:54:48.473Z,9.68
2023-01-11T07:55:48.353Z,9.77
2023-01-11T07:56:48.624Z,9.82
2023-01-11T07:57:48.604Z,9.80
2023-01-11T07:58:48.316Z,9.82
2023-01-11T07:59:48.966Z,9.77
2023-01-11T08:00:48.231Z,9.79
2023-01-11T08:01:48.383Z,9.80
2023-01-11T08:02:48.981Z,9.83
2023-01-11T08:03:48.524Z,9.83
2023-01-11T08:04:48.340Z,9.79
2023-01-11T08:05:48.493Z,9.77
2023-01-11T08:06:48.155Z,9.74
2023-01-11T08:07:48.996Z,9.69
2023-01-11T08:08:50.043Z,9.72
2023-01-11T08:09:48.241Z,9.68
2023-01-11T08:10:48.413Z,9.72
2023-01-11T08:11:49.331Z,9.73
2023-01-11T08:12:50.650Z,9.73
2023-01-11T08:13:50.136Z,9.73
2023-01-11T08:14:50.476Z,9.73
2023-01-11T08:15:54.546Z,9.72
2023-01-11T08:16:48.031Z,9.69
2023-01-11T08:17:50.010Z,9.72
2023-01-11T08:18:50.621Z,9.69
2023-01-11T08:19:51.475Z,9.66
2023-01-11T08:20:48.990Z,9.66
2023-01-11T08:21:49.206Z,9.68
2023-01-11T08:22:49.645Z,9.66
2023-01-11T08:23:48.196Z,9.69
2023-01-11T08:24:48.538Z,9.69
2023-01-11T08:25:48.214Z,9.69
2023-01-11T08:26:48.665Z,9.69
2023-01-11T08:27:47.952Z,9.66
2023-01-11T08:28:48.368Z,9.69
2023-01-11T08:29:47.924Z,9.73
2023-01-11T08:30:47.943Z,9.74
2023-01-11T08:31:47.896Z,9.77
2023-01-11T08:32:47.855Z,9.77
2023-01-11T08:33:48.678Z,9.79
2023-01-11T08:34:47.844Z,9.82
2023-01-11T08:35:48.836Z,9.83
2023-01-11T08:36:47.898Z,9.84
2023-01-11T08:37:47.839Z,9.87
2023-01-11T08:38:47.859Z,9.86
2023-01-11T08:39:48.413Z,9.84
2023-01-11T08:40:47.923Z,9.86
2023-01-11T08:41:47.814Z,9.87
2023-01-11T08:42:48.737Z,9.87
2023-01-11T08:43:49.572Z,9.86
2023-01-11T08:44:53.464Z,9.84
2023-01-11T08:45:48.149Z,9.87
2023-01-11T08:46:47.778Z,9.89
2023-01-11T08:47:48.474Z,9.89
2023-01-11T08:48:53.618Z,9.87
2023-01-11T08:49:50.829Z,9.91
2023-01-11T08:50:51.290Z,9.91
2023-01-11T08:51:48.933Z,9.91
2023-01-11T08:52:49.177Z,9.89
2023-01-11T08:53:49.505Z,9.87
2023-01-11T08:54:51.286Z,9.84
2023-01-11T08:55:50.134Z,9.86
2023-01-11T08:56:48.850Z,9.84
2023-01-11T08:57:51.426Z,9.83
2023-01-11T08:58:48.039Z,9.84
2023-01-11T08:59:52.139Z,9.84
2023-01-11T09:00:52.479Z,9.87
2023-01-11T09:01:47.683Z,9.91
2023-01-11T09:02:48.023Z,9.91
2023-01-11T09:03:51.761Z,9.97
2023-01-11T09:04:52.068Z,9.97
2023-01-11T09:05:48.601Z,9.99
2023-01-11T09:06:49.829Z,10.01
2023-01-11T09:07:48.098Z,9.97
2023-01-11T09:08:48.695Z,9.99
2023-01-11T09:09:48.628Z,10.01
2023-01-11T09:10:47.820Z,9.99
2023-01-11T09:11:47.488Z,9.98
2023-01-11T09:12:47.741Z,9.98
2023-01-11T09:13:49.467Z,9.98
2023-01-11T09:14:48.261Z,9.99
2023-01-11T09:15:50.095Z,10.01
2023-01-11T09:16:49.465Z,10.04
2023-01-11T09:17:49.808Z,10.04
2023-01-11T09:18:48.588Z,10.07
2023-01-11T09:19:50.556Z,10.10
2023-01-11T09:20:48.402Z,10.07
2023-01-11T09:21:47.377Z,10.10
2023-01-11T09:22:47.338Z,10.09
2023-01-11T09:23:47.646Z,10.09
2023-01-11T09:24:49.994Z,10.10
2023-01-11T09:25:49.580Z,10.12
2023-01-11T09:26:47.588Z,10.13
2023-01-11T09:27:47.554Z,10.15
2023-01-11T09:28:51.973Z,10.15
2023-01-11T09:29:47.940Z,10.16
2023-01-11T09:30:48.330Z,10.17
2023-01-11T09:31:47.463Z,10.16
2023-01-11T09:32:48.236Z,10.16
2023-01-11T09:33:47.741Z,10.22
2023-01-11T09:34:48.183Z,10.23
2023-01-11T09:35:48.237Z,10.25
2023-01-11T09:36:47.526Z,10.23
2023-01-11T09:37:47.206Z,10.22
2023-01-11T09:38:47.892Z,10.23
2023-01-11T09:39:47.842Z,10.20
2023-01-11T09:40:47.821Z,10.23
2023-01-11T09:41:48.242Z,10.22
2023-01-11T09:42:48.090Z,10.23
2023-01-11T09:43:47.721Z,10.26
2023-01-11T09:44:47.109Z,10.26
2023-01-11T09:45:48.859Z,10.28
2023-01-11T09:46:47.169Z,10.26
2023-01-11T09:47:47.108Z,10.25
2023-01-11T09:48:47.973Z,10.23
2023-01-11T09:49:47.143Z,10.28
2023-01-11T09:50:47.045Z,10.31
2023-01-11T09:51:47.058Z,10.31
2023-01-11T09:52:47.021Z,10.34
2023-01-11T09:53:47.028Z,10.38
2023-01-11T09:54:47.840Z,10.41
2023-01-11T09:55:47.110Z,10.42
2023-01-11T09:56:46.992Z,10.44
2023-01-11T09:57:47.197Z,10.42
2023-01-11T09:58:46.968Z,10.41
2023-01-11T09:59:47.152Z,10.41
2023-01-11T10:00:47.085Z,10.40
2023-01-11T10:01:47.039Z,10.41
2023-01-11T10:02:46.978Z,10.42
2023-01-11T10:03:47.052Z,10.42
2023-01-11T10:04:46.983Z,10.44
2023-01-11T10:05:47.030Z,10.44
2023-01-11T10:06:47.032Z,10.48
2023-01-11T10:07:48.037Z,10.42
2023-01-11T10:18:21.028Z,10.42
2023-01-11T10:19:11.843Z,10.41
2023-01-11T10:19:41.328Z,10.41
2023-01-11T10:19:56.575Z,10.38
2023-01-11T10:20:56.634Z,10.31
2023-01-11T10:21:56.489Z,10.26
2023-01-11T10:22:56.505Z,10.22
2023-01-11T10:23:56.481Z,10.20
2023-01-11T10:24:57.900Z,10.22
2023-01-11T10:25:56.491Z,10.20
2023-01-11T10:26:56.536Z,10.22
2023-01-11T10:27:56.490Z,10.22
2023-01-11T10:28:56.443Z,10.22
2023-01-11T10:29:56.409Z,10.20
2023-01-11T10:30:56.556Z,10.17
2023-01-11T10:31:56.430Z,10.19
2023-01-11T10:32:56.496Z,10.16
2023-01-11T10:33:57.148Z,10.17
2023-01-11T10:34:56.453Z,10.15
2023-01-11T10:35:56.444Z,10.15
2023-01-11T10:36:56.505Z,10.13
2023-01-11T10:37:56.332Z,10.10
2023-01-11T10:38:56.358Z,10.10
2023-01-11T10:39:56.314Z,10.09
2023-01-11T10:40:56.330Z,10.12
2023-01-11T10:41:56.312Z,10.09
2023-01-11T10:42:56.345Z,10.07
2023-01-11T10:43:56.340Z,10.02
2023-01-11T10:44:56.325Z,9.99
2023-01-11T10:45:56.363Z,10.01
2023-01-11T10:46:56.292Z,10.01
2023-01-11T10:47:56.299Z,10.04
2023-01-11T10:48:56.267Z,10.02
2023-01-11T10:49:56.250Z,10.02
2023-01-11T10:50:56.257Z,10.02
2023-01-11T10:51:56.263Z,9.97
2023-01-11T10:52:56.198Z,9.97
2023-01-11T10:53:56.212Z,9.94
2023-01-11T10:54:56.211Z,9.91
2023-01-11T10:55:56.138Z,9.92
2023-01-11T10:57:03.091Z,9.92
2023-01-11T10:58:01.379Z,9.94
2023-01-11T10:58:56.166Z,9.94
2023-01-11T10:59:56.176Z,9.91
2023-01-11T11:00:56.181Z,9.89
2023-01-11T11:01:56.157Z,9.87
2023-01-11T11:02:56.131Z,9.86
2023-01-11T11:03:56.107Z,9.82
2023-01-11T11:04:56.941Z,9.83
2023-01-11T11:05:56.300Z,9.82
2023-01-11T11:06:56.397Z,9.82
2023-01-11T11:07:56.116Z,9.83
2023-01-11T11:08:56.289Z,9.83
2023-01-11T11:09:56.042Z,9.84
2023-01-11T11:10:56.117Z,9.86
2023-01-11T11:11:56.070Z,9.87
2023-01-11T11:12:56.022Z,9.84
2023-01-11T11:13:56.048Z,9.86
2023-01-11T11:14:56.093Z,9.83
2023-01-11T11:15:56.761Z,9.83
2023-01-11T11:16:55.954Z,9.84
2023-01-11T11:17:55.969Z,9.82
2023-01-11T11:18:55.998Z,9.86
2023-01-11T11:19:56.015Z,9.83
2023-01-11T11:20:56.050Z,9.79
2023-01-11T11:21:55.907Z,9.80
2023-01-11T11:22:56.192Z,9.80
2023-01-11T11:23:56.542Z,9.87
2023-01-11T11:24:55.889Z,9.86
2023-01-11T11:25:56.737Z,9.83
2023-01-11T11:26:55.923Z,9.83
2023-01-11T11:27:55.818Z,9.84
2023-01-11T11:28:55.833Z,9.86
2023-01-11T11:29:55.808Z,9.94
2023-01-11T11:30:55.815Z,9.91
2023-01-11T11:31:55.761Z,9.94
2023-01-11T11:32:55.856Z,9.94
2023-01-11T11:33:55.761Z,9.95
2023-01-11T11:34:55.771Z,9.95
2023-01-11T11:35:55.741Z,9.95
2023-01-11T11:36:55.751Z,9.99
2023-01-11T11:37:55.749Z,10.02
2023-01-11T11:38:55.788Z,10.04
2023-01-11T11:39:55.710Z,10.05
2023-01-11T11:40:55.796Z,10.07
2023-01-11T11:41:55.662Z,10.04
2023-01-11T11:42:55.688Z,9.99
2023-01-11T11:43:55.645Z,9.97
2023-01-11T11:44:55.650Z,9.95
2023-01-11T11:45:55.733Z,9.95
2023-01-11T11:46:55.652Z,9.94
2023-01-11T11:47:55.599Z,9.94
2023-01-11T11:48:55.660Z,9.97
2023-01-11T11:49:55.638Z,9.94
2023-01-11T11:50:55.647Z,9.95
2023-01-11T11:51:55.550Z,9.95
2023-01-11T11:52:55.603Z,9.98
2023-01-11T11:53:55.625Z,9.99
2023-01-11T11:54:55.680Z,9.98
2023-01-11T11:55:55.540Z,9.99
2023-01-11T11:56:55.674Z,9.97
2023-01-11T11:57:55.539Z,9.92
2023-01-11T11:58:55.493Z,9.89
2023-01-11T11:59:55.491Z,9.89
2023-01-11T12:00:55.538Z,9.91
2023-01-11T12:01:55.550Z,9.91
2023-01-11T12:02:55.545Z,9.84
2023-01-11T12:03:55.472Z,9.86
2023-01-11T12:04:55.525Z,9.87
2023-01-11T12:05:55.435Z,9.84
2023-01-11T12:06:55.437Z,9.86
2023-01-11T12:07:55.903Z,9.89
2023-01-11T12:08:55.431Z,9.97
2023-01-11T12:09:55.440Z,10.05
2023-01-11T12:10:55.421Z,10.09
2023-01-11T12:11:55.364Z,10.12
2023-01-11T12:12:55.428Z,10.12
2023-01-11T12:13:55.428Z,10.22
2023-01-11T12:14:55.341Z,10.46
2023-01-11T12:15:55.347Z,10.61
2023-01-11T12:16:55.327Z,10.81
2023-01-11T12:17:55.355Z,10.89
2023-01-11T12:18:55.312Z,10.82
2023-01-11T12:19:55.347Z,10.76
2023-01-11T12:20:55.250Z,10.74
2023-01-11T12:21:55.313Z,10.74
2023-01-11T12:22:55.271Z,10.67
2023-01-11T12:23:55.324Z,10.68
2023-01-11T12:24:55.261Z,10.59
2023-01-11T12:25:55.243Z,10.41
2023-01-11T12:26:55.295Z,10.35
2023-01-11T12:27:55.247Z,10.40
2023-01-11T12:28:55.163Z,10.48
2023-01-11T12:29:55.345Z,10.46
2023-01-11T12:30:55.226Z,10.34
2023-01-11T12:31:55.195Z,10.23
2023-01-11T12:32:55.123Z,10.20
2023-01-11T12:33:55.145Z,10.16
2023-01-11T12:34:55.122Z,10.09
2023-01-11T12:35:55.111Z,10.04
2023-01-11T12:36:55.148Z,10.02
2023-01-11T12:37:55.134Z,9.99
2023-01-11T12:38:55.070Z,10.01
2023-01-11T12:39:55.286Z,10.09
2023-01-11T12:40:55.060Z,10.25
2023-01-11T12:41:55.088Z,10.28
2023-01-11T12:42:55.105Z,10.20
2023-01-11T12:43:55.036Z,10.20
2023-01-11T12:44:55.114Z,10.20
2023-01-11T12:45:55.040Z,10.16
2023-01-11T12:46:54.978Z,10.15
2023-01-11T12:47:54.988Z,10.16
2023-01-11T12:48:54.992Z,10.22
2023-01-11T12:49:55.778Z,10.22
2023-01-11T12:50:54.937Z,10.20
2023-01-11T12:51:54.987Z,10.23
2023-01-11T12:52:55.894Z,10.23
2023-01-11T12:53:54.947Z,10.26
2023-01-11T12:54:55.605Z,10.28
2023-01-11T12:55:55.115Z,10.31
2023-01-11T12:56:54.877Z,10.33
2023-01-11T12:57:54.882Z,10.31
2023-01-11T12:58:54.936Z,10.30
2023-01-11T12:59:54.929Z,10.28
2023-01-11T13:00:54.865Z,10.28
2023-01-11T13:01:54.844Z,10.22
2023-01-11T13:02:54.899Z,10.19
2023-01-11T13:03:54.824Z,10.13
2023-01-11T13:04:54.809Z,10.07
2023-01-11T13:05:54.896Z,10.05
2023-01-11T13:06:54.794Z,10.09
2023-01-11T13:07:54.785Z,9.99
2023-01-11T13:08:54.750Z,9.95
2023-01-11T13:09:54.805Z,9.97
2023-01-11T13:10:54.731Z,9.92
2023-01-11T13:11:54.755Z,9.95
2023-01-11T13:12:54.855Z,9.97
2023-01-11T13:13:54.733Z,9.97
2023-01-11T13:14:54.696Z,10.02
2023-01-11T13:15:54.731Z,10.05
2023-01-11T13:16:54.752Z,10.13
2023-01-11T13:17:54.717Z,10.16
2023-01-11T13:18:54.666Z,10.25
2023-01-11T13:19:54.695Z,10.35
2023-01-11T13:21:01.375Z,10.37
2023-01-11T13:21:54.676Z,10.44